createdAt,value
2022-09-01T00:01:31.506Z,22.53
2022-09-01T00:03:57.954Z,22.52
2022-09-01T00:06:24.294Z,22.55
2022-09-01T00:08:50.662Z,22.54
2022-09-01T00:11:17.060Z,22.55
2022-09-01T00:13:43.559Z,22.56
2022-09-01T00:16:10.074Z,22.53
2022-09-01T00:18:36.375Z,22.51
2022-09-01T00:21:02.732Z,22.51
2022-09-01T00:23:29.091Z,22.49
2022-09-01T00:25:55.528Z,22.45
2022-09-01T00:28:21.925Z,22.40
2022-09-01T00:30:48.384Z,22.39
2022-09-01T00:33:14.731Z,22.35
2022-09-01T00:35:41.094Z,22.35
2022-09-01T00:38:07.477Z,22.30
2022-09-01T00:40:33.883Z,22.23
2022-09-01T00:43:00.216Z,22.19
2022-09-01T00:45:26.618Z,22.21
2022-09-01T00:47:53.016Z,22.25
2022-09-01T00:50:19.459Z,22.27
2022-09-01T00:52:45.826Z,22.27
2022-09-01T00:55:12.198Z,22.27
2022-09-01T00:57:38.556Z,22.23
2022-09-01T01:00:04.930Z,22.17
2022-09-01T01:02:31.359Z,22.17
2022-09-01T01:04:57.743Z,22.13
2022-09-01T01:07:24.105Z,22.09
2022-09-01T01:09:50.473Z,22.09
2022-09-01T01:12:16.868Z,22.06
2022-09-01T01:14:44.057Z,22.08
2022-09-01T01:17:09.679Z,22.07
2022-09-01T01:19:39.021Z,22.08
2022-09-01T01:22:02.408Z,22.04
2022-09-01T01:24:28.773Z,21.98
2022-09-01T01:26:55.235Z,21.88
2022-09-01T01:29:21.675Z,21.83
2022-09-01T01:31:48.035Z,21.74
2022-09-01T01:34:14.410Z,21.59
2022-09-01T01:36:40.771Z,21.46
2022-09-01T01:39:07.188Z,21.39
2022-09-01T01:41:33.570Z,21.28
2022-09-01T01:43:59.935Z,21.21
2022-09-01T01:46:26.344Z,21.20
2022-09-01T01:48:52.679Z,21.13
2022-09-01T01:51:19.070Z,21.00
2022-09-01T01:53:45.481Z,20.90
2022-09-01T01:56:11.844Z,20.85
2022-09-01T01:58:38.222Z,20.88
2022-09-01T02:01:04.699Z,20.91
2022-09-01T02:03:30.988Z,20.95
2022-09-01T02:05:57.408Z,20.91
2022-09-01T02:08:23.866Z,20.86
2022-09-01T02:10:50.234Z,20.86
2022-09-01T02:13:16.640Z,20.91
2022-09-01T02:15:43.023Z,21.04
2022-09-01T02:18:09.397Z,21.14
2022-09-01T02:20:35.786Z,21.23
2022-09-01T02:23:02.154Z,21.29
2022-09-01T02:25:28.515Z,21.27
2022-09-01T02:27:54.885Z,21.25
2022-09-01T02:30:21.257Z,21.25
2022-09-01T02:32:47.633Z,21.21
2022-09-01T02:35:14.022Z,21.16
2022-09-01T02:37:40.455Z,21.15
2022-09-01T02:40:06.890Z,21.12
2022-09-01T02:42:33.221Z,21.14
2022-09-01T02:44:59.587Z,21.10
2022-09-01T02:47:25.957Z,20.97
2022-09-01T02:49:52.407Z,20.97
2022-09-01T02:52:18.816Z,21.03
2022-09-01T02:54:45.205Z,20.95
2022-09-01T02:57:11.613Z,20.97
2022-09-01T02:59:43.121Z,21.01
2022-09-01T03:02:04.480Z,21.01
2022-09-01T03:04:30.916Z,21.03
2022-09-01T03:06:57.346Z,21.03
2022-09-01T03:09:23.704Z,20.96
2022-09-01T03:11:50.210Z,20.91
2022-09-01T03:14:16.643Z,20.96
2022-09-01T03:16:43.120Z,20.92
2022-09-01T03:19:09.485Z,20.81
2022-09-01T03:21:35.944Z,20.73
2022-09-01T03:24:02.374Z,20.64
2022-09-01T03:26:28.801Z,20.65
2022-09-01T03:28:55.185Z,20.68
2022-09-01T03:31:21.593Z,20.67
2022-09-01T03:33:47.927Z,20.63
2022-09-01T03:36:15.033Z,20.61
2022-09-01T03:38:40.691Z,20.67
2022-09-01T03:41:07.205Z,20.69
2022-09-01T03:43:35.539Z,20.74
2022-09-01T03:45:59.970Z,20.75
2022-09-01T03:48:26.324Z,20.76
2022-09-01T03:50:52.685Z,20.77
2022-09-01T03:53:19.070Z,20.75
2022-09-01T03:55:45.494Z,20.75
2022-09-01T03:58:11.907Z,20.73
2022-09-01T04:00:38.397Z,20.71
2022-09-01T04:03:04.790Z,20.69
2022-09-01T04:05:31.225Z,20.72
2022-09-01T04:07:57.656Z,20.72
2022-09-01T04:10:24.032Z,20.74
2022-09-01T04:12:50.426Z,20.75
2022-09-01T04:15:16.860Z,20.71
2022-09-01T04:17:43.223Z,20.68
2022-09-01T04:20:09.593Z,20.69
2022-09-01T04:22:35.974Z,20.65
2022-09-01T04:25:02.360Z,20.64
2022-09-01T04:27:28.721Z,20.65
2022-09-01T04:29:57.683Z,20.69
2022-09-01T04:32:21.508Z,20.70
2022-09-01T04:34:47.874Z,20.73
2022-09-01T04:37:14.341Z,20.74
2022-09-01T04:39:40.709Z,20.74
2022-09-01T04:42:07.077Z,20.72
2022-09-01T04:44:33.540Z,20.72
2022-09-01T04:46:59.972Z,20.76
2022-09-01T04:49:26.347Z,20.82
2022-09-01T04:51:54.226Z,20.90
2022-09-01T04:54:19.205Z,21.11
2022-09-01T04:56:45.589Z,21.22
2022-09-01T04:59:11.987Z,21.23
2022-09-01T05:01:38.336Z,21.32
2022-09-01T05:04:04.801Z,21.42
2022-09-01T05:06:31.266Z,21.61
2022-09-01T05:08:57.638Z,21.70
2022-09-01T05:11:24.238Z,21.63
2022-09-01T05:13:50.542Z,21.52
2022-09-01T05:16:20.338Z,21.43
2022-09-01T05:18:43.297Z,21.36
2022-09-01T05:21:09.682Z,21.31
2022-09-01T05:23:36.166Z,21.26
2022-09-01T05:26:02.595Z,21.22
2022-09-01T05:28:28.993Z,21.22
2022-09-01T05:30:55.378Z,21.23
2022-09-01T05:33:22.053Z,21.23
2022-09-01T05:35:48.242Z,21.21
2022-09-01T05:38:14.616Z,21.20
2022-09-01T05:40:41.128Z,21.18
2022-09-01T05:43:07.381Z,21.19
2022-09-01T05:45:56.279Z,21.19
2022-09-01T05:48:00.196Z,21.20
2022-09-01T05:50:26.560Z,21.25
2022-09-01T05:52:52.972Z,21.30
2022-09-01T05:55:19.353Z,21.32
2022-09-01T05:57:45.822Z,21.38
2022-09-01T06:00:12.192Z,21.45
2022-09-01T06:02:38.671Z,21.46
2022-09-01T06:05:04.974Z,21.49
2022-09-01T06:07:31.361Z,21.55
2022-09-01T06:09:57.727Z,21.58
2022-09-01T06:12:24.215Z,21.53
2022-09-01T06:14:50.584Z,21.46
2022-09-01T06:17:17.035Z,21.40
2022-09-01T06:19:43.522Z,21.33
2022-09-01T06:22:09.953Z,21.33
2022-09-01T06:24:36.310Z,21.30
2022-09-01T06:27:02.805Z,21.27
2022-09-01T06:29:29.178Z,21.23
2022-09-01T06:31:55.562Z,21.19
2022-09-01T06:34:21.971Z,21.16
2022-09-01T06:36:48.347Z,21.15
2022-09-01T06:39:14.734Z,21.17
2022-09-01T06:41:41.237Z,21.29
2022-09-01T06:44:12.399Z,21.54
2022-09-01T06:46:35.941Z,21.61
2022-09-01T06:49:00.408Z,21.64
2022-09-01T06:51:26.837Z,21.70
2022-09-01T06:53:53.277Z,21.79
2022-09-01T06:56:19.705Z,22.08
2022-09-01T06:58:46.108Z,22.45
2022-09-01T07:01:12.479Z,22.71
2022-09-01T07:03:38.917Z,22.96
2022-09-01T07:06:05.281Z,23.30
2022-09-01T07:08:31.785Z,23.81
2022-09-01T07:13:24.592Z,24.71
2022-09-01T07:18:17.435Z,25.09
2022-09-01T07:23:10.358Z,25.83
2022-09-01T07:26:00.698Z,26.15
2022-09-01T07:28:03.382Z,26.43
2022-09-01T07:30:29.746Z,26.63
2022-09-01T07:32:56.116Z,26.85
2022-09-01T07:35:22.579Z,27.11
2022-09-01T07:38:47.323Z,27.48
2022-09-01T07:52:27.385Z,29.13
2022-09-01T07:54:53.790Z,29.25
2022-09-01T07:57:20.183Z,29.41
2022-09-01T07:59:46.563Z,29.71
2022-09-01T08:02:13.077Z,29.68
2022-09-01T08:04:39.384Z,29.94
2022-09-01T08:07:05.846Z,30.19
2022-09-01T08:09:37.794Z,30.38
2022-09-01T08:12:02.182Z,30.51
2022-09-01T08:14:25.052Z,30.55
2022-09-01T08:16:53.001Z,30.67
2022-09-01T08:19:17.788Z,30.83
2022-09-01T08:21:44.156Z,30.94
2022-09-01T08:24:10.542Z,30.96
2022-09-01T08:26:36.914Z,31.07
2022-09-01T08:29:03.274Z,31.17
2022-09-01T08:31:31.231Z,31.24
2022-09-01T08:33:56.198Z,31.31
2022-09-01T08:36:24.877Z,31.47
2022-09-01T08:38:49.068Z,31.63
2022-09-01T08:41:15.501Z,31.70
2022-09-01T08:43:41.933Z,31.74
2022-09-01T08:46:08.332Z,31.81
2022-09-01T08:49:23.568Z,31.93
2022-09-01T08:51:01.129Z,31.93
2022-09-01T08:53:27.563Z,32.06
2022-09-01T08:55:53.948Z,32.10
2022-09-01T08:58:20.518Z,32.11
2022-09-01T09:00:50.524Z,32.25
2022-09-01T09:03:13.435Z,32.52
2022-09-01T09:05:39.726Z,32.73
2022-09-01T09:08:07.602Z,32.86
2022-09-01T09:10:32.539Z,32.98
2022-09-01T09:12:58.912Z,33.04
2022-09-01T09:15:25.383Z,33.05
2022-09-01T09:17:57.511Z,33.00
2022-09-01T09:20:18.222Z,33.01
2022-09-01T09:22:44.585Z,33.14
2022-09-01T09:25:10.986Z,33.21
2022-09-01T09:27:37.370Z,33.01
2022-09-01T09:30:08.244Z,32.88
2022-09-01T09:32:50.529Z,33.02
2022-09-01T09:34:56.620Z,33.25
2022-09-01T09:37:23.164Z,33.51
2022-09-01T09:39:49.415Z,33.68
2022-09-01T09:42:15.775Z,33.84
2022-09-01T09:44:42.141Z,33.96
2022-09-01T09:47:27.222Z,33.84
2022-09-01T09:49:41.402Z,33.53
2022-09-01T09:52:01.400Z,33.61
2022-09-01T09:54:27.775Z,33.83
2022-09-01T09:56:54.204Z,33.82
2022-09-01T09:59:39.476Z,34.01
2022-09-01T10:01:47.112Z,33.96
2022-09-01T10:04:13.561Z,33.82
2022-09-01T10:06:39.863Z,33.89
2022-09-01T10:09:06.253Z,34.02
2022-09-01T10:11:35.850Z,34.20
2022-09-01T10:13:59.086Z,34.10
2022-09-01T10:16:26.912Z,34.23
2022-09-01T10:18:51.902Z,34.49
2022-09-01T10:21:18.282Z,34.51
2022-09-01T10:23:44.960Z,34.18
2022-09-01T10:26:11.024Z,33.98
2022-09-01T10:28:37.429Z,33.99
2022-09-01T10:31:03.975Z,33.79
2022-09-01T10:33:30.248Z,33.70
2022-09-01T10:35:56.725Z,33.74
2022-09-01T10:38:23.091Z,33.76
2022-09-01T10:40:50.054Z,33.99
2022-09-01T10:43:15.853Z,34.03
2022-09-01T10:45:42.282Z,33.76
2022-09-01T10:48:13.042Z,33.76
2022-09-01T10:50:36.069Z,33.86
2022-09-01T10:53:01.449Z,33.93
2022-09-01T10:55:27.780Z,33.72
2022-09-01T10:57:54.176Z,33.50
2022-09-01T11:00:36.586Z,33.19
2022-09-01T11:02:47.030Z,33.14
2022-09-01T11:05:13.323Z,33.18
2022-09-01T11:07:59.922Z,32.92
2022-09-01T11:10:11.101Z,32.83
2022-09-01T11:12:33.688Z,33.02
2022-09-01T11:15:00.208Z,33.17
2022-09-01T11:17:26.829Z,33.10
2022-09-01T11:19:53.130Z,33.12
2022-09-01T11:22:19.662Z,33.25
2022-09-01T11:24:49.611Z,33.44
2022-09-01T11:27:12.450Z,33.48
2022-09-01T11:29:38.808Z,33.43
2022-09-01T11:32:05.231Z,33.47
2022-09-01T11:34:31.639Z,33.34
2022-09-01T11:36:58.062Z,33.18
2022-09-01T11:39:24.605Z,33.03
2022-09-01T11:41:55.756Z,33.12
2022-09-01T11:44:17.356Z,33.20
2022-09-01T11:46:43.993Z,33.13
2022-09-01T11:49:10.480Z,33.00
2022-09-01T11:51:36.864Z,32.96
2022-09-01T11:54:03.302Z,32.89
2022-09-01T11:56:29.675Z,32.84
2022-09-01T11:58:56.040Z,32.81
2022-09-01T12:01:22.497Z,32.70
2022-09-01T12:03:49.189Z,32.64
2022-09-01T12:06:15.528Z,32.82
2022-09-01T12:08:41.891Z,33.02
2022-09-01T12:11:08.282Z,33.17
2022-09-01T12:13:34.673Z,33.30
2022-09-01T12:16:17.402Z,33.45
2022-09-01T12:18:27.469Z,33.43
2022-09-01T12:20:53.963Z,33.26
2022-09-01T12:23:20.423Z,33.21
2022-09-01T12:25:46.929Z,33.21
2022-09-01T12:28:13.300Z,33.19
2022-09-01T12:30:39.721Z,32.92
2022-09-01T12:35:32.430Z,32.42
2022-09-01T12:37:58.833Z,32.28
2022-09-01T12:40:25.248Z,32.35
2022-09-01T12:42:51.654Z,32.45
2022-09-01T12:45:18.068Z,32.42
2022-09-01T12:47:44.473Z,32.46
2022-09-01T12:50:10.857Z,32.41
2022-09-01T12:52:37.541Z,32.24
2022-09-01T12:55:03.628Z,32.07
2022-09-01T12:57:30.014Z,31.90
2022-09-01T12:59:56.785Z,31.83
2022-09-01T13:02:23.011Z,31.94
2022-09-01T13:04:49.342Z,31.81
2022-09-01T13:07:15.884Z,31.78
2022-09-01T13:09:42.532Z,31.80
2022-09-01T13:12:08.627Z,31.90
2022-09-01T13:14:35.047Z,32.02
2022-09-01T13:17:01.420Z,32.13
2022-09-01T13:19:30.172Z,31.99
2022-09-01T13:21:54.200Z,31.84
2022-09-01T13:24:23.346Z,31.68
2022-09-01T13:27:20.303Z,31.60
2022-09-01T13:29:13.368Z,31.59
2022-09-01T13:32:17.111Z,31.62
2022-09-01T13:34:10.396Z,31.51
2022-09-01T13:36:51.533Z,31.43
2022-09-01T13:38:59.204Z,31.22
2022-09-01T13:41:25.576Z,31.11
2022-09-01T13:43:52.071Z,31.05
2022-09-01T13:46:18.482Z,31.01
2022-09-01T13:51:16.593Z,30.86
2022-09-01T13:53:37.645Z,30.87
2022-09-01T13:56:04.025Z,30.88
2022-09-01T13:58:30.402Z,30.85
2022-09-01T14:00:56.952Z,30.78
2022-09-01T14:03:23.261Z,30.70
2022-09-01T14:05:49.873Z,30.60
2022-09-01T14:08:16.059Z,30.63
2022-09-01T14:10:42.414Z,30.56
2022-09-01T14:13:08.787Z,30.47
2022-09-01T14:15:35.186Z,30.36
2022-09-01T14:18:01.584Z,30.25
2022-09-01T14:20:27.945Z,30.19
2022-09-01T14:22:54.332Z,30.02
2022-09-01T14:25:20.731Z,29.82
2022-09-01T14:27:47.590Z,29.64
2022-09-01T14:30:13.497Z,29.57
2022-09-01T14:32:39.909Z,29.40
2022-09-01T14:35:06.279Z,29.24
2022-09-01T14:37:32.781Z,29.09
2022-09-01T14:39:59.139Z,29.01
2022-09-01T14:42:25.510Z,28.99
2022-09-01T14:44:51.977Z,28.99
2022-09-01T14:47:19.254Z,28.91
2022-09-01T14:49:44.771Z,28.82
2022-09-01T14:52:11.823Z,28.81
2022-09-01T14:54:37.604Z,28.82
2022-09-01T14:59:30.339Z,28.81
2022-09-01T15:01:56.813Z,28.80
2022-09-01T15:04:23.185Z,28.76
2022-09-01T15:06:49.565Z,28.72
2022-09-01T15:09:18.977Z,28.66
2022-09-01T15:11:44.229Z,28.61
2022-09-01T15:14:08.820Z,28.58
2022-09-01T15:16:35.253Z,28.56
2022-09-01T15:19:01.704Z,28.50
2022-09-01T15:21:28.179Z,28.45
2022-09-01T15:23:54.801Z,28.36
2022-09-01T15:26:21.235Z,28.33
2022-09-01T15:28:47.668Z,28.36
2022-09-01T15:31:14.166Z,28.43
2022-09-01T15:33:40.421Z,28.48
2022-09-01T15:36:06.811Z,28.39
2022-09-01T15:38:33.310Z,28.31
2022-09-01T15:40:59.952Z,28.25
2022-09-01T15:43:26.323Z,28.26
2022-09-01T15:45:52.675Z,28.19
2022-09-01T15:48:19.058Z,28.11
2022-09-01T15:50:45.425Z,28.08
2022-09-01T15:53:11.798Z,28.06
2022-09-01T15:55:38.226Z,28.07
2022-09-01T15:58:04.659Z,28.08
2022-09-01T16:00:31.105Z,27.97
2022-09-01T16:02:57.446Z,27.91
2022-09-01T16:05:23.833Z,27.85
2022-09-01T16:07:50.283Z,27.80
2022-09-01T16:10:16.612Z,27.82
2022-09-01T16:12:42.977Z,27.77
2022-09-01T16:15:09.380Z,27.67
2022-09-01T16:17:35.815Z,27.62
2022-09-01T16:20:02.219Z,27.53
2022-09-01T16:22:28.572Z,27.42
2022-09-01T16:24:54.974Z,27.36
2022-09-01T16:27:21.345Z,27.33
2022-09-01T16:29:47.809Z,27.25
2022-09-01T16:32:14.107Z,27.15
2022-09-01T16:34:40.540Z,27.11
2022-09-01T16:37:06.900Z,27.05
2022-09-01T16:39:33.300Z,27.04
2022-09-01T16:41:59.735Z,27.00
2022-09-01T16:44:26.168Z,27.00
2022-09-01T16:46:52.663Z,27.00
2022-09-01T16:49:19.040Z,26.94
2022-09-01T16:51:45.407Z,26.84
2022-09-01T16:54:11.808Z,26.77
2022-09-01T16:56:38.209Z,26.67
2022-09-01T16:59:04.565Z,26.56
2022-09-01T17:01:31.056Z,26.41
2022-09-01T17:03:57.335Z,26.38
2022-09-01T17:06:23.761Z,26.36
2022-09-01T17:08:50.152Z,26.30
2022-09-01T17:11:16.525Z,26.29
2022-09-01T17:13:42.929Z,26.28
2022-09-01T17:16:09.335Z,26.29
2022-09-01T17:18:35.703Z,26.28
2022-09-01T17:21:02.052Z,26.29
2022-09-01T17:23:28.860Z,26.32
2022-09-01T17:25:54.791Z,26.28
2022-09-01T17:28:21.266Z,26.25
2022-09-01T17:30:47.546Z,26.14
2022-09-01T17:33:18.567Z,26.10
2022-09-01T17:35:40.417Z,26.08
2022-09-01T17:38:06.878Z,26.07
2022-09-01T17:40:33.396Z,26.05
2022-09-01T17:42:59.707Z,26.03
2022-09-01T17:45:26.185Z,25.97
2022-09-01T17:47:52.603Z,25.93
2022-09-01T17:50:18.976Z,25.91
2022-09-01T17:52:47.462Z,25.87
2022-09-01T17:55:11.809Z,25.77
2022-09-01T17:57:38.195Z,25.70
2022-09-01T18:00:04.589Z,25.66
2022-09-01T18:02:30.966Z,25.66
2022-09-01T18:04:57.512Z,25.71
2022-09-01T18:07:23.820Z,25.70
2022-09-01T18:09:50.187Z,25.65
2022-09-01T18:12:16.572Z,25.63
2022-09-01T18:14:42.976Z,25.56
2022-09-01T18:17:09.360Z,25.52
2022-09-01T18:19:35.748Z,25.46
2022-09-01T18:22:02.155Z,25.46
2022-09-01T18:24:28.558Z,25.42
2022-09-01T18:26:55.167Z,25.38
2022-09-01T18:29:21.581Z,25.38
2022-09-01T18:31:48.024Z,25.36
2022-09-01T18:34:14.419Z,25.37
2022-09-01T18:36:41.007Z,25.29
2022-09-01T18:39:07.689Z,25.25
2022-09-01T18:41:34.417Z,25.25
2022-09-01T18:44:01.061Z,25.22
2022-09-01T18:46:27.749Z,25.21
2022-09-01T18:48:54.439Z,25.22
2022-09-01T18:51:21.056Z,25.18
2022-09-01T18:53:47.705Z,25.16
2022-09-01T18:56:14.358Z,25.16
2022-09-01T18:58:41.106Z,25.10
2022-09-01T19:01:07.725Z,25.06
2022-09-01T19:03:34.359Z,25.11
2022-09-01T19:06:01.009Z,25.14
2022-09-01T19:08:27.771Z,25.18
2022-09-01T19:10:54.379Z,25.24
2022-09-01T19:13:20.977Z,25.25
2022-09-01T19:15:47.562Z,25.23
2022-09-01T19:18:14.300Z,25.23
2022-09-01T19:20:40.825Z,25.24
2022-09-01T19:23:07.462Z,25.23
2022-09-01T19:25:33.990Z,25.22
2022-09-01T19:28:00.647Z,25.24
2022-09-01T19:30:27.069Z,25.23
2022-09-01T19:32:53.501Z,25.15
2022-09-01T19:35:19.883Z,25.07
2022-09-01T19:37:46.300Z,24.98
2022-09-01T19:40:12.812Z,24.90
2022-09-01T19:42:39.126Z,24.85
2022-09-01T19:45:06.797Z,24.83
2022-09-01T19:47:31.929Z,24.84
2022-09-01T19:49:58.497Z,24.86
2022-09-01T19:52:24.860Z,24.84
2022-09-01T19:54:51.229Z,24.80
2022-09-01T19:57:17.614Z,24.76
2022-09-01T19:59:44.015Z,24.69
2022-09-01T20:02:10.466Z,24.61
2022-09-01T20:04:36.780Z,24.54
2022-09-01T20:07:03.175Z,24.39
2022-09-01T20:09:29.621Z,24.28
2022-09-01T20:11:55.990Z,24.05
2022-09-01T20:14:22.382Z,24.09
2022-09-01T20:16:48.817Z,24.11
2022-09-01T20:19:15.250Z,24.14
2022-09-01T20:21:41.676Z,24.18
2022-09-01T20:24:08.076Z,24.22
2022-09-01T20:26:34.451Z,24.16
2022-09-01T20:29:00.823Z,24.13
2022-09-01T20:31:27.286Z,24.11
2022-09-01T20:33:53.599Z,24.05
2022-09-01T20:36:20.067Z,24.01
2022-09-01T20:38:46.508Z,23.99
2022-09-01T20:41:12.891Z,23.99
2022-09-01T20:43:39.375Z,23.96
2022-09-01T20:46:05.781Z,23.98
2022-09-01T20:48:32.153Z,23.99
2022-09-01T20:50:58.572Z,23.98
2022-09-01T20:53:25.006Z,23.98
2022-09-01T20:55:51.408Z,23.89
2022-09-01T20:58:17.776Z,23.77
2022-09-01T21:00:44.201Z,23.78
2022-09-01T21:03:12.233Z,23.78
2022-09-01T21:05:39.941Z,23.79
2022-09-01T21:08:03.396Z,23.81
2022-09-01T21:10:29.772Z,23.80
2022-09-01T21:12:56.137Z,23.78
2022-09-01T21:15:22.504Z,23.75
2022-09-01T21:17:48.917Z,23.74
2022-09-01T21:20:15.287Z,23.75
2022-09-01T21:22:41.980Z,23.71
2022-09-01T21:25:08.342Z,23.69
2022-09-01T21:27:34.730Z,23.68
2022-09-01T21:30:01.100Z,23.70
2022-09-01T21:32:27.515Z,23.69
2022-09-01T21:34:53.925Z,23.69
2022-09-01T21:37:20.392Z,23.64
2022-09-01T21:39:46.773Z,23.58
2022-09-01T21:42:13.155Z,23.50
2022-09-01T21:44:39.586Z,23.49
2022-09-01T21:47:05.952Z,23.44
2022-09-01T21:49:33.217Z,23.42
2022-09-01T21:51:58.729Z,23.30
2022-09-01T21:54:25.125Z,23.19
2022-09-01T21:56:51.487Z,23.23
2022-09-01T21:59:17.886Z,23.27
2022-09-01T22:01:44.307Z,23.25
2022-09-01T22:04:10.744Z,23.25
2022-09-01T22:06:37.097Z,23.24
2022-09-01T22:09:03.482Z,23.19
2022-09-01T22:11:29.854Z,23.17
2022-09-01T22:13:56.238Z,23.14
2022-09-01T22:16:22.642Z,23.14
2022-09-01T22:18:49.037Z,23.17
2022-09-01T22:21:15.466Z,23.20
2022-09-01T22:23:41.880Z,23.19
2022-09-01T22:26:10.452Z,23.17
2022-09-01T22:28:34.767Z,23.15
2022-09-01T22:31:01.180Z,23.15
2022-09-01T22:33:27.530Z,23.15
2022-09-01T22:35:53.881Z,23.15
2022-09-01T22:38:20.390Z,23.15
2022-09-01T22:40:46.838Z,23.16
2022-09-01T22:43:13.331Z,23.12
2022-09-01T22:45:39.536Z,23.17
2022-09-01T22:48:05.925Z,23.17
2022-09-01T22:50:32.301Z,23.11
2022-09-01T22:52:58.690Z,23.10
2022-09-01T22:55:25.078Z,23.07
2022-09-01T22:57:51.546Z,23.04
2022-09-01T23:00:17.986Z,23.03
2022-09-01T23:02:44.442Z,23.05
2022-09-01T23:05:10.755Z,23.06
2022-09-01T23:07:37.116Z,22.93
2022-09-01T23:10:03.518Z,22.72
2022-09-01T23:12:29.882Z,22.70
2022-09-01T23:14:56.241Z,22.62
2022-09-01T23:17:22.710Z,22.54
2022-09-01T23:19:49.092Z,22.34
2022-09-01T23:22:15.467Z,22.29
2022-09-01T23:24:41.871Z,22.38
2022-09-01T23:27:08.255Z,22.53
2022-09-01T23:29:34.669Z,22.64
2022-09-01T23:32:01.103Z,22.72
2022-09-01T23:34:27.440Z,22.79
2022-09-01T23:36:53.821Z,22.81
2022-09-01T23:39:20.300Z,22.81
2022-09-01T23:41:46.672Z,22.87
2022-09-01T23:44:13.062Z,22.94
2022-09-01T23:46:39.434Z,22.89
2022-09-01T23:49:05.857Z,22.86
2022-09-01T23:51:32.256Z,22.93
2022-09-01T23:53:58.616Z,22.94
2022-09-01T23:56:24.985Z,22.96
2022-09-01T23:58:51.368Z,23.00
